Time;durP1;ratioP1;P1;durP2;ratioP2;P2;SDS_P1;SDS_P2;PMS_P1;PMS_P2;Temp;Humidity;BMP_temperature;BMP_pressure;BME280_temperature;BME280_humidity;BME280_pressure;Samples;Min_cycle;Max_cycle;Signal;HPM_P1;HPM_P2
2022/05/01 00:01:01;;;;;;;;;;;14.60;63.30;;;;;;5048106;28;19913;-69
2022/05/01 00:03:35;;;;;;;;;;;14.60;64.00;;;;;;5045432;28;19919;-69
2022/05/01 00:06:05;;;;;;;;;;;14.50;63.90;;;;;;5040269;28;19913;-69
2022/05/01 00:08:31;;;;;;;;;;;14.50;64.30;;;;;;5042282;28;19913;-69
2022/05/01 00:10:57;;;;;;;;;;;14.40;63.60;;;;;;5035552;28;20269;-69
2022/05/01 00:13:23;;;;;;;;;;;14.40;63.60;;;;;;5039782;28;19939;-69
2022/05/01 00:15:49;;;;;;;;;;;13.70;63.60;;;;;;5045219;28;19908;-69
2022/05/01 00:18:15;;;;;;;;;;;14.30;64.70;;;;;;5044519;28;19909;-69
2022/05/01 00:20:40;;;;;;;;;;;14.30;64.70;;;;;;5039285;28;20613;-69
2022/05/01 00:23:06;;;;;;;;;;;14.20;64.00;;;;;;5035623;28;20272;-69
2022/05/01 00:25:32;;;;;;;;;;;14.30;65.10;;;;;;5033460;28;19912;-69
2022/05/01 00:27:58;;;;;;;;;;;14.20;64.50;;;;;;5049485;28;19908;-69
2022/05/01 00:30:26;;;;;;;;;;;14.20;64.60;;;;;;5049946;28;19917;-69
2022/05/01 00:38:20;;;;;;;;;;;14.10;64.40;;;;;;5041620;28;19969;-69
2022/05/01 00:40:46;;;;;;;;;;;14.10;65.30;;;;;;5034830;28;19921;-69
2022/05/01 00:43:12;;;;;;;;;;;14.10;65.30;;;;;;5038988;28;19917;-69
2022/05/01 00:45:37;;;;;;;;;;;14.10;64.60;;;;;;5045536;28;20425;-69
2022/05/01 00:48:03;;;;;;;;;;;14.10;64.70;;;;;;5047037;28;19991;-69
2022/05/01 00:50:29;;;;;;;;;;;14.10;65.40;;;;;;5040881;28;19925;-69
2022/05/01 00:52:54;;;;;;;;;;;14.10;65.40;;;;;;5038483;28;19916;-69
2022/05/01 00:55:21;;;;;;;;;;;14.10;64.90;;;;;;5032494;28;19924;-69
2022/05/01 00:57:47;;;;;;;;;;;14.10;65.70;;;;;;5048542;28;20403;-69
2022/05/01 01:00:16;;;;;;;;;;;14.10;65.90;;;;;;5048241;28;19909;-69
2022/05/01 01:02:42;;;;;;;;;;;14.10;66.30;;;;;;5048697;28;19983;-69
2022/05/01 01:05:07;;;;;;;;;;;14.10;67.20;;;;;;5044410;28;20276;-69
2022/05/01 01:07:34;;;;;;;;;;;14.10;66.70;;;;;;5045931;28;20387;-69
2022/05/01 01:10:00;;;;;;;;;;;14.00;65.90;;;;;;5046023;28;19916;-69
2022/05/01 01:15:10;;;;;;;;;;;14.00;66.70;;;;;;5034628;28;19951;-69
2022/05/01 01:17:36;;;;;;;;;;;14.00;66.00;;;;;;5031419;28;20027;-69
2022/05/01 01:20:07;;;;;;;;;;;14.00;66.80;;;;;;5043765;28;20358;-69
2022/05/01 01:22:33;;;;;;;;;;;14.00;66.90;;;;;;5047272;28;19909;-69
2022/05/01 01:24:59;;;;;;;;;;;14.00;65.90;;;;;;5047604;28;19955;-69
2022/05/01 01:27:25;;;;;;;;;;;14.00;66.90;;;;;;5044633;28;19958;-69
2022/05/01 01:32:37;;;;;;;;;;;14.00;65.70;;;;;;5044993;28;19924;-69
2022/05/01 01:35:04;;;;;;;;;;;14.00;66.40;;;;;;5042289;28;20356;-69
2022/05/01 01:37:30;;;;;;;;;;;14.00;66.30;;;;;;5034920;28;19909;-69
2022/05/01 01:39:56;;;;;;;;;;;14.00;65.30;;;;;;5043313;28;19912;-69
2022/05/01 01:42:24;;;;;;;;;;;14.00;65.90;;;;;;5042017;28;20364;-69
2022/05/01 01:44:51;;;;;;;;;;;14.00;65.60;;;;;;5036772;28;20693;-69
2022/05/01 01:47:17;;;;;;;;;;;13.90;65.40;;;;;;5041221;28;19913;-69
2022/05/01 01:49:43;;;;;;;;;;;13.90;65.20;;;;;;5042374;28;19917;-69
2022/05/01 01:52:09;;;;;;;;;;;13.90;65.00;;;;;;5031806;28;19917;-69
2022/05/01 01:54:35;;;;;;;;;;;13.80;64.20;;;;;;5040411;28;20429;-69
2022/05/01 01:57:00;;;;;;;;;;;13.80;65.00;;;;;;5035048;28;19915;-69
2022/05/01 01:59:26;;;;;;;;;;;13.80;65.30;;;;;;5037243;28;19913;-69
2022/05/01 02:01:51;;;;;;;;;;;13.80;64.40;;;;;;5044544;28;19913;-69
2022/05/01 02:04:17;;;;;;;;;;;13.80;65.50;;;;;;5041445;28;20403;-69
2022/05/01 02:06:43;;;;;;;;;;;13.70;65.30;;;;;;5030188;28;20008;-69
2022/05/01 02:09:09;;;;;;;;;;;13.70;65.30;;;;;;5035842;28;19919;-69
2022/05/01 02:11:35;;;;;;;;;;;13.70;64.60;;;;;;5040844;28;19924;-69
2022/05/01 02:14:01;;;;;;;;;;;13.70;65.40;;;;;;5037039;28;19916;-69
2022/05/01 02:16:27;;;;;;;;;;;13.70;65.20;;;;;;5045090;28;19909;-69
2022/05/01 02:18:52;;;;;;;;;;;13.70;64.80;;;;;;5032031;28;20367;-69
2022/05/01 02:21:36;;;;;;;;;;;13.70;64.70;;;;;;5035184;28;19940;-69
2022/05/01 02:24:08;;;;;;;;;;;13.50;64.10;;;;;;5032489;28;19995;-69
2022/05/01 02:26:35;;;;;;;;;;;13.60;64.90;;;;;;5042071;28;19912;-69
2022/05/01 02:29:02;;;;;;;;;;;13.60;65.00;;;;;;5045428;28;19913;-69
2022/05/01 02:31:28;;;;;;;;;;;13.60;64.90;;;;;;5043951;28;19917;-69
2022/05/01 02:33:53;;;;;;;;;;;13.60;64.00;;;;;;5042509;28;20295;-69
2022/05/01 02:36:19;;;;;;;;;;;13.60;64.90;;;;;;5034903;28;19908;-69
2022/05/01 02:38:47;;;;;;;;;;;13.70;64.90;;;;;;5032948;28;19909;-69
2022/05/01 02:41:13;;;;;;;;;;;13.70;64.90;;;;;;5036012;28;20407;-69
2022/05/01 02:43:39;;;;;;;;;;;13.70;64.00;;;;;;5041788;28;19935;-69
2022/05/01 02:46:04;;;;;;;;;;;13.60;63.80;;;;;;5035675;28;20273;-69
2022/05/01 02:48:30;;;;;;;;;;;13.60;64.70;;;;;;5047097;28;19913;-69
2022/05/01 02:50:56;;;;;;;;;;;13.60;63.50;;;;;;5040287;28;20298;-69
2022/05/01 02:53:22;;;;;;;;;;;13.60;63.50;;;;;;5039695;28;20364;-70
2022/05/01 02:55:47;;;;;;;;;;;13.60;63.60;;;;;;5044571;28;19962;-69
2022/05/01 02:58:13;;;;;;;;;;;13.60;64.30;;;;;;5042368;28;19916;-69
2022/05/01 03:00:38;;;;;;;;;;;13.60;64.30;;;;;;5045127;28;19919;-69
2022/05/01 03:03:04;;;;;;;;;;;13.60;64.30;;;;;;5039571;28;19911;-69
2022/05/01 03:05:30;;;;;;;;;;;13.60;63.40;;;;;;5044955;28;20434;-69
2022/05/01 03:07:56;;;;;;;;;;;13.60;64.20;;;;;;5042818;28;20002;-69
2022/05/01 03:10:22;;;;;;;;;;;13.60;64.00;;;;;;5038560;28;19921;-69
2022/05/01 03:12:47;;;;;;;;;;;13.60;64.10;;;;;;5051346;28;19958;-69
2022/05/01 03:15:13;;;;;;;;;;;13.60;63.00;;;;;;5037051;28;20331;-69
2022/05/01 03:23:07;;;;;;;;;;;13.60;62.50;;;;;;5045729;28;19920;-69
2022/05/01 03:25:32;;;;;;;;;;;13.60;62.50;;;;;;5041707;28;19913;-69
2022/05/01 03:27:58;;;;;;;;;;;13.60;62.30;;;;;;5043990;28;19909;-69
2022/05/01 03:30:24;;;;;;;;;;;13.60;62.40;;;;;;5039275;28;19924;-69
2022/05/01 03:32:50;;;;;;;;;;;13.60;63.20;;;;;;5046736;28;19917;-69
2022/05/01 03:35:17;;;;;;;;;;;13.60;63.20;;;;;;5043821;28;20700;-69
2022/05/01 03:37:42;;;;;;;;;;;13.60;63.60;;;;;;5050698;28;20003;-69
2022/05/01 03:40:12;;;;;;;;;;;13.50;62.90;;;;;;5035648;28;20011;-69
2022/05/01 03:42:38;;;;;;;;;;;13.50;63.00;;;;;;5046375;28;20440;-69
2022/05/01 03:45:04;;;;;;;;;;;13.50;63.10;;;;;;5047483;28;20342;-69
2022/05/01 03:47:29;;;;;;;;;;;13.50;64.10;;;;;;5044745;28;19913;-69
2022/05/01 03:49:55;;;;;;;;;;;13.40;64.20;;;;;;5035655;28;19921;-69
2022/05/01 03:52:20;;;;;;;;;;;13.40;64.50;;;;;;5044123;28;19921;-69
2022/05/01 03:54:46;;;;;;;;;;;13.40;64.60;;;;;;5049561;28;20485;-69
2022/05/01 03:57:11;;;;;;;;;;;13.30;64.10;;;;;;5036889;28;19951;-69
2022/05/01 03:59:37;;;;;;;;;;;13.30;64.30;;;;;;5048114;28;19909;-69
2022/05/01 04:02:03;;;;;;;;;;;13.30;64.50;;;;;;5043383;28;20284;-69
2022/05/01 04:04:28;;;;;;;;;;;13.30;65.30;;;;;;5047142;28;20007;-69
2022/05/01 04:06:54;;;;;;;;;;;13.30;64.70;;;;;;5044582;28;20329;-69
2022/05/01 04:09:23;;;;;;;;;;;13.20;65.70;;;;;;5045349;28;19962;-69
2022/05/01 11:09:14;;;;;;;10.63;4.40;;;27.30;21.80;;;;;;5057834;28;20436;-68
2022/05/01 11:11:40;;;;;;;;;;;27.00;23.50;;;;;;5045322;28;20111;-68
2022/05/01 11:14:05;;;;;;;6.82;3.25;;;27.10;22.60;;;;;;5038826;28;19917;-68
2022/05/01 11:16:54;;;;;;;6.72;3.17;;;27.30;22.70;;;;;;5038984;28;20033;-68
2022/05/01 11:19:21;;;;;;;7.22;3.75;;;27.70;21.60;;;;;;5049836;28;20057;-69
2022/05/01 11:21:50;;;;;;;4.68;2.90;;;27.70;21.40;;;;;;5044012;28;20108;-69
2022/05/01 11:24:35;;;;;;;4.80;2.70;;;27.80;21.30;;;;;;5045677;28;20078;-69
2022/05/01 11:27:21;;;;;;;5.03;3.00;;;28.00;21.10;;;;;;5035073;28;20056;-69
2022/05/01 11:30:06;;;;;;;8.32;2.67;;;28.20;20.30;;;;;;5039694;28;20068;-69
2022/05/01 11:32:58;;;;;;;6.65;2.75;;;28.50;20.20;;;;;;5046523;28;20043;-68
2022/05/01 11:35:56;;;;;;;19.95;13.57;;;28.90;19.90;;;;;;5036889;28;20025;-68
2022/05/01 11:38:30;;;;;;;6.03;3.10;;;29.20;19.80;;;;;;5036622;28;20116;-68
2022/05/01 11:40:59;;;;;;;6.15;3.28;;;29.40;19.80;;;;;;5029402;28;20029;-68
2022/05/01 11:43:28;;;;;;;5.82;3.13;;;29.60;19.60;;;;;;5025454;28;20524;-69
2022/05/01 11:46:02;;;;;;;6.25;3.35;;;29.90;19.40;;;;;;5028280;28;20026;-69
2022/05/01 11:48:29;;;;;;;5.25;2.65;;;30.30;18.90;;;;;;5030270;28;20057;-68
2022/05/01 11:50:58;;;;;;;4.70;2.70;;;30.80;18.90;;;;;;5028973;28;20477;-69
2022/05/01 11:53:29;;;;;;;5.72;2.78;;;31.40;18.40;;;;;;5032078;28;20382;-68
2022/05/01 12:04:43;;;;;;;6.25;2.70;;;32.10;17.80;;;;;;5039625;28;20040;-68
2022/05/01 12:07:21;;;;;;;6.82;2.38;;;32.40;17.60;;;;;;5035657;28;20037;-68
2022/05/01 12:09:51;;;;;;;7.10;2.65;;;32.70;16.80;;;;;;5041696;28;20583;-68
2022/05/01 12:12:19;;;;;;;4.72;2.45;;;33.20;16.30;;;;;;5039023;28;20134;-68
2022/05/01 12:14:48;;;;;;;5.90;2.40;;;33.80;15.90;;;;;;5042325;28;20025;-68
2022/05/01 12:17:16;;;;;;;4.22;2.40;;;34.30;15.50;;;;;;5035090;28;20515;-69
2022/05/01 12:19:44;;;;;;;4.57;2.40;;;34.60;15.10;;;;;;5026502;28;20433;-69
2022/05/01 12:22:15;;;;;;;6.72;2.65;;;34.70;14.80;;;;;;5011647;28;21010;-69
2022/05/01 12:24:46;;;;;;;5.35;2.33;;;34.50;14.90;;;;;;5012247;28;20049;-69
2022/05/01 12:27:14;;;;;;;4.55;2.30;;;34.10;15.20;;;;;;5019603;28;20140;-68
2022/05/01 12:29:49;;;;;;;5.97;3.00;;;34.40;15.00;;;;;;5024682;28;20057;-69
2022/05/01 12:32:15;;;;;;;5.38;2.80;;;35.20;15.00;;;;;;5022589;28;20033;-69
2022/05/01 12:34:44;;;;;;;5.20;2.60;;;35.80;15.10;;;;;;5025822;28;20038;-68
2022/05/01 12:37:12;;;;;;;5.25;2.20;;;36.30;14.40;;;;;;5011348;28;20048;-69
2022/05/01 12:39:39;;;;;;;5.30;2.15;;;36.80;14.20;;;;;;5016148;28;20105;-68
2022/05/01 12:45:09;;;;;;;5.10;2.30;;;37.40;14.10;;;;;;5030969;28;20451;-68
2022/05/01 12:47:37;;;;;;;4.28;2.10;;;37.40;13.40;;;;;;5031206;28;20047;-68
2022/05/01 12:50:08;;;;;;;4.20;2.15;;;37.10;13.50;;;;;;5033362;28;20036;-68
2022/05/01 12:52:37;;;;;;;4.57;2.10;;;36.50;14.10;;;;;;5013878;28;20029;-68
2022/05/01 12:55:06;;;;;;;4.03;1.80;;;36.20;14.70;;;;;;5023016;28;20032;-68
2022/05/01 12:57:34;;;;;;;3.55;1.88;;;35.80;14.60;;;;;;5015549;28;20030;-68
2022/05/01 13:00:00;;;;;;;6.22;2.00;;;35.80;14.80;;;;;;5018522;28;20041;-68
2022/05/01 13:02:26;;;;;;;4.28;2.00;;;35.80;14.90;;;;;;5028205;28;20022;-69
2022/05/01 13:04:59;;;;;;;4.88;2.10;;;35.60;14.50;;;;;;5025381;28;20030;-68
2022/05/01 13:07:34;;;;;;;5.80;2.17;;;35.40;14.30;;;;;;5025622;28;20512;-68
2022/05/01 13:10:03;;;;;;;3.88;1.90;;;35.10;14.40;;;;;;5012829;28;20112;-67
2022/05/01 13:12:34;;;;;;;5.22;2.50;;;34.60;15.00;;;;;;5026467;28;20028;-68
2022/05/01 13:15:04;;;;;;;6.15;2.30;;;34.50;15.00;;;;;;5030862;28;20045;-68
2022/05/01 13:17:31;;;;;;;4.88;2.03;;;34.40;15.10;;;;;;5026843;28;20035;-67
2022/05/01 13:19:58;;;;;;;5.97;2.10;;;34.00;15.40;;;;;;5035186;28;20037;-67
2022/05/01 13:22:24;;;;;;;4.20;2.08;;;34.10;15.20;;;;;;5011028;28;20025;-67
2022/05/01 13:24:52;;;;;;;5.05;2.10;;;34.50;15.40;;;;;;5013783;28;20169;-67
2022/05/01 13:27:19;;;;;;;3.75;2.20;;;35.00;16.10;;;;;;5018258;28;20013;-67
2022/05/01 13:29:45;;;;;;;3.88;1.92;;;35.50;15.10;;;;;;5026561;28;20025;-67
2022/05/01 13:32:11;;;;;;;5.70;1.90;;;35.90;14.80;;;;;;5028033;28;20026;-67
2022/05/01 13:34:47;;;;;;;4.57;1.90;;;36.10;14.50;;;;;;5025649;28;20045;-68
2022/05/01 13:37:14;;;;;;;4.95;2.10;;;36.10;14.50;;;;;;5014668;28;20057;-68
2022/05/01 13:45:09;;;;;;;6.00;2.30;;;36.20;14.50;;;;;;5022395;28;20503;-67
2022/05/01 13:47:36;;;;;;;4.30;1.90;;;35.90;14.20;;;;;;5026031;28;20037;-67
2022/05/01 13:50:05;;;;;;;5.50;1.92;;;35.60;14.30;;;;;;5031742;28;20520;-68
2022/05/01 13:52:31;;;;;;;4.25;1.75;;;35.20;14.50;;;;;;5026651;28;20037;-67
2022/05/01 13:54:57;;;;;;;3.88;1.80;;;34.70;15.80;;;;;;5010429;28;20049;-67
2022/05/01 13:57:24;;;;;;;4.93;1.73;;;34.00;16.30;;;;;;5012449;28;20116;-67
2022/05/01 13:59:49;;;;;;;5.85;1.90;;;33.20;17.00;;;;;;5012467;28;20038;-67
2022/05/01 14:02:16;;;;;;;4.05;1.70;;;32.40;17.40;;;;;;5013200;28;20029;-67
2022/05/01 14:04:45;;;;;;;4.65;1.60;;;31.60;18.30;;;;;;5023961;28;20090;-67
2022/05/01 14:07:10;;;;;;;4.38;1.70;;;31.10;19.00;;;;;;5010016;28;20046;-68
2022/05/01 14:09:36;;;;;;;4.55;1.65;;;30.60;18.70;;;;;;5014521;28;20409;-67
2022/05/01 14:12:02;;;;;;;5.72;1.90;;;30.10;19.20;;;;;;5013133;28;20030;-68
2022/05/01 14:14:28;;;;;;;11.57;2.17;;;29.60;19.00;;;;;;5013694;28;20597;-67
2022/05/01 14:16:53;;;;;;;4.22;1.88;;;29.20;19.40;;;;;;5012003;28;20026;-67
2022/05/01 14:19:27;;;;;;;4.25;1.85;;;29.00;19.50;;;;;;5042043;28;20505;-67
2022/05/01 14:21:55;;;;;;;4.53;2.50;;;28.70;19.50;;;;;;5033008;28;20024;-67
2022/05/01 14:24:21;;;;;;;5.22;2.30;;;28.50;19.20;;;;;;5028307;28;20064;-68
2022/05/01 14:26:48;;;;;;;3.75;2.00;;;28.40;19.40;;;;;;5019777;28;20049;-67
2022/05/01 14:29:14;;;;;;;5.20;2.20;;;28.30;20.40;;;;;;5012942;28;20460;-68
2022/05/01 14:32:07;;;;;;;5.28;2.22;;;28.10;20.00;;;;;;5011350;28;20018;-68
2022/05/01 14:34:38;;;;;;;5.18;2.20;;;28.00;21.00;;;;;;5024067;28;20025;-67
2022/05/01 14:37:05;;;;;;;6.05;2.15;;;28.00;21.20;;;;;;5009372;28;20061;-67
2022/05/01 14:39:31;;;;;;;6.68;2.13;;;28.20;20.40;;;;;;5013668;28;20036;-67
2022/05/01 14:42:06;;;;;;;6.85;2.20;;;28.00;20.20;;;;;;5012496;28;20042;-67
2022/05/01 14:44:45;;;;;;;4.70;1.88;;;27.80;20.80;;;;;;5022128;28;20029;-67
2022/05/01 14:47:16;;;;;;;4.20;2.10;;;27.50;20.20;;;;;;5025318;28;20081;-67
2022/05/01 14:49:50;;;;;;;5.45;2.38;;;27.20;20.80;;;;;;5036335;28;20041;-67
2022/05/01 14:52:17;;;;;;;5.53;2.47;;;27.00;21.90;;;;;;5011450;28;20033;-67
2022/05/01 14:54:46;;;;;;;5.88;2.20;;;26.80;22.20;;;;;;5009579;28;20125;-66
2022/05/01 14:57:12;;;;;;;4.22;2.10;;;26.50;22.50;;;;;;5012705;28;20045;-67
2022/05/01 15:08:27;;;;;;;6.00;2.20;;;25.80;23.10;;;;;;5019009;28;20064;-67
2022/05/01 15:10:53;;;;;;;5.97;2.33;;;25.50;23.70;;;;;;5012440;28;20112;-67
2022/05/01 15:13:19;;;;;;;4.03;2.00;;;25.40;23.40;;;;;;5012284;28;20034;-68
2022/05/01 15:16:11;;;;;;;4.20;2.20;;;25.30;23.60;;;;;;5009230;28;20519;-68
2022/05/01 15:18:46;;;;;;;5.00;2.08;;;25.20;23.70;;;;;;5034037;28;20025;-68
2022/05/01 15:21:17;;;;;;;4.63;2.30;;;25.20;23.70;;;;;;5023189;28;20034;-67
2022/05/01 15:23:55;;;;;;;4.57;2.25;;;25.20;23.80;;;;;;5018331;28;20052;-68
2022/05/01 15:26:23;;;;;;;5.05;2.38;;;25.20;24.20;;;;;;5019247;28;20049;-68
2022/05/01 15:28:54;;;;;;;3.85;2.00;;;25.10;24.20;;;;;;5012245;28;20105;-68
2022/05/01 15:31:21;;;;;;;4.45;2.13;;;25.00;24.10;;;;;;5007984;28;20025;-68
2022/05/01 15:33:53;;;;;;;4.90;2.40;;;24.90;24.10;;;;;;5024095;28;20041;-68
2022/05/01 15:36:33;;;;;;;4.25;2.13;;;24.80;24.70;;;;;;5019259;28;20060;-68
2022/05/01 15:39:04;;;;;;;4.18;2.13;;;24.80;24.20;;;;;;5014777;28;20379;-68
2022/05/01 15:41:33;;;;;;;4.13;2.22;;;24.80;24.60;;;;;;5011638;28;20036;-68
2022/05/01 15:44:05;;;;;;;4.45;2.38;;;24.80;24.60;;;;;;5011536;28;20544;-68
2022/05/01 15:46:32;;;;;;;5.78;2.28;;;24.70;24.00;;;;;;5012103;28;20026;-68
2022/05/01 15:54:33;;;;;;;4.60;2.50;;;24.40;25.20;;;;;;5031101;28;20060;-68
2022/05/01 15:57:01;;;;;;;4.53;2.40;;;24.40;25.90;;;;;;5021272;28;20090;-68
2022/05/01 15:59:27;;;;;;;4.53;2.38;;;24.50;25.20;;;;;;5034856;28;20057;-68
2022/05/01 16:01:56;;;;;;;7.55;2.30;;;24.50;24.80;;;;;;5033122;28;20033;-68
2022/05/01 16:04:23;;;;;;;5.10;2.20;;;24.50;25.00;;;;;;5023934;28;20056;-67
2022/05/01 16:06:50;;;;;;;6.00;2.28;;;24.50;24.90;;;;;;5032714;28;20039;-68
2022/05/01 16:09:22;;;;;;;5.35;2.22;;;24.50;25.30;;;;;;5036737;28;20045;-67
2022/05/01 16:12:03;;;;;;;4.93;2.10;;;24.40;25.20;;;;;;5026340;28;20025;-66
2022/05/01 16:14:43;;;;;;;6.63;2.22;;;24.20;25.60;;;;;;5020970;28;20061;-67
2022/05/01 16:17:27;;;;;;;5.00;2.10;;;24.10;26.30;;;;;;5026723;28;20094;-67
2022/05/01 16:20:19;;;;;;;3.90;2.15;;;23.90;26.70;;;;;;5029299;28;20530;-68
2022/05/01 16:22:59;;;;;;;4.80;2.25;;;23.80;26.80;;;;;;5029053;28;20048;-67
2022/05/01 16:25:28;;;;;;;4.22;2.08;;;23.80;26.90;;;;;;5028498;28;20025;-68
2022/05/01 16:28:13;;;;;;;5.40;2.80;;;23.80;26.80;;;;;;5031922;28;20045;-68
2022/05/01 16:30:47;;;;;;;5.45;2.30;;;23.80;26.60;;;;;;5032730;28;20079;-67
2022/05/01 16:33:18;;;;;;;6.35;2.60;;;23.80;26.60;;;;;;5029983;28;20512;-67
2022/05/01 16:35:52;;;;;;;6.28;1.92;;;23.80;26.90;;;;;;5018586;28;20026;-67
2022/05/01 16:38:18;;;;;;;3.20;1.98;;;23.80;27.10;;;;;;5018427;28;20113;-68
2022/05/01 16:40:51;;;;;;;3.85;2.05;;;23.80;26.60;;;;;;5013197;28;20136;-68
2022/05/01 16:43:19;;;;;;;8.15;2.10;;;23.80;27.00;;;;;;5036435;28;20056;-67
2022/05/01 16:45:49;;;;;;;6.63;2.22;;;23.90;27.50;;;;;;5027676;28;20021;-67
2022/05/01 16:48:16;;;;;;;5.20;2.40;;;24.00;26.80;;;;;;5015471;28;20088;-68
2022/05/01 16:50:47;;;;;;;6.13;2.30;;;24.00;26.50;;;;;;5014277;28;20117;-67
2022/05/01 16:53:16;;;;;;;7.03;2.15;;;24.00;26.50;;;;;;5019053;28;20034;-67
2022/05/01 16:55:42;;;;;;;4.88;2.08;;;24.00;26.20;;;;;;5014447;28;20113;-68
2022/05/01 16:58:10;;;;;;;3.95;2.20;;;24.00;26.50;;;;;;5020767;28;20759;-68
2022/05/01 17:00:36;;;;;;;7.63;2.38;;;24.00;26.40;;;;;;5012037;28;20116;-67
2022/05/01 17:03:15;;;;;;;5.28;2.25;;;24.00;26.60;;;;;;5019553;28;20455;-67
2022/05/01 17:06:08;;;;;;;5.47;2.50;;;24.00;26.60;;;;;;5018967;28;20030;-68
2022/05/01 17:08:58;;;;;;;38.90;3.20;;;24.00;26.40;;;;;;5020077;28;20451;-67
2022/05/01 17:11:46;;;;;;;5.03;2.03;;;23.80;26.80;;;;;;5020653;28;20064;-68
2022/05/01 17:14:44;;;;;;;7.82;2.30;;;23.60;26.90;;;;;;5021879;28;20056;-68
2022/05/01 17:17:12;;;;;;;5.07;2.20;;;23.50;27.60;;;;;;5022568;28;20068;-68
2022/05/01 17:19:48;;;;;;;6.35;2.22;;;23.30;27.90;;;;;;5012887;28;20069;-67
2022/05/01 17:22:32;;;;;;;8.35;2.50;;;23.20;28.00;;;;;;5013751;28;20029;-68
2022/05/01 17:25:11;;;;;;;5.35;2.30;;;23.20;28.00;;;;;;5025934;28;20025;-68
2022/05/01 17:27:44;;;;;;;4.38;2.30;;;23.10;28.10;;;;;;5015390;28;20117;-68
2022/05/01 17:30:12;;;;;;;5.20;2.30;;;23.00;28.20;;;;;;5012712;28;20893;-68
2022/05/01 17:32:52;;;;;;;5.15;2.20;;;22.90;28.00;;;;;;5015469;28;20030;-67
2022/05/01 17:35:23;;;;;;;6.20;2.42;;;22.90;28.30;;;;;;5021348;28;20084;-67
2022/05/01 17:37:50;;;;;;;5.63;2.13;;;22.90;28.80;;;;;;5014041;28;20034;-67
2022/05/01 17:40:17;;;;;;;68.82;4.30;;;22.80;28.90;;;;;;5010309;28;20198;-67
2022/05/01 17:42:45;;;;;;;7.05;2.33;;;22.80;29.10;;;;;;5028050;28;20095;-68
2022/05/01 17:45:11;;;;;;;5.78;2.55;;;22.80;28.90;;;;;;5027320;28;20037;-67
2022/05/01 17:47:42;;;;;;;5.00;2.17;;;22.70;29.00;;;;;;5019602;28;20504;-67
2022/05/01 17:50:09;;;;;;;4.95;2.30;;;22.70;29.00;;;;;;5017732;28;20436;-67
2022/05/01 17:52:35;;;;;;;5.10;2.22;;;22.60;29.20;;;;;;5024851;28;20109;-67
2022/05/01 17:55:10;;;;;;;6.07;2.45;;;22.50;29.50;;;;;;5011655;28;20026;-67
2022/05/01 17:57:36;;;;;;;5.80;2.50;;;22.40;29.70;;;;;;5014858;28;20516;-67
2022/05/01 18:00:05;;;;;;;6.85;2.40;;;22.40;29.80;;;;;;5012931;28;20058;-67
2022/05/01 18:02:59;;;;;;;6.47;2.50;;;22.30;29.90;;;;;;5014421;28;20030;-67
2022/05/01 18:11:36;;;;;;;7.57;2.55;;;22.00;30.80;;;;;;5013548;28;20056;-67
2022/05/01 18:14:32;;;;;;;4.90;2.53;;;21.90;30.80;;;;;;5032562;28;20566;-67
2022/05/01 18:17:13;;;;;;;6.05;2.65;;;21.90;30.60;;;;;;5013071;28;20041;-69
2022/05/01 18:20:06;;;;;;;4.15;2.58;;;21.80;30.90;;;;;;5012060;28;20100;-68
2022/05/01 18:22:40;;;;;;;4.95;2.92;;;21.70;30.80;;;;;;5010484;28;20041;-69
2022/05/01 18:25:08;;;;;;;5.03;2.70;;;21.70;31.00;;;;;;5010467;28;20032;-67
2022/05/01 18:27:49;;;;;;;5.05;2.70;;;21.60;31.40;;;;;;5014241;28;20026;-68
2022/05/01 18:30:19;;;;;;;10.88;2.70;;;21.60;32.00;;;;;;5013653;28;20108;-68
2022/05/01 18:33:11;;;;;;;9.93;2.78;;;21.60;32.20;;;;;;5015385;28;20052;-68
2022/05/01 18:35:39;;;;;;;7.90;2.70;;;21.50;32.40;;;;;;5012900;28;20125;-68
2022/05/01 18:38:17;;;;;;;7.55;2.90;;;21.50;32.40;;;;;;5011652;28;20055;-68
2022/05/01 18:41:04;;;;;;;6.32;2.90;;;21.50;32.60;;;;;;5011986;28;20025;-67
2022/05/01 18:43:33;;;;;;;6.40;2.67;;;21.40;32.90;;;;;;5035004;28;20026;-68
2022/05/01 18:46:00;;;;;;;6.10;3.17;;;21.30;32.50;;;;;;5010843;28;20017;-68
2022/05/01 18:48:31;;;;;;;7.47;3.25;;;21.30;32.70;;;;;;5013930;28;20091;-68
2022/05/01 18:50:59;;;;;;;5.00;3.28;;;21.20;32.70;;;;;;5012449;28;20030;-68
2022/05/01 18:53:27;;;;;;;6.43;2.92;;;21.20;32.70;;;;;;5017395;28;20079;-68
2022/05/01 18:55:53;;;;;;;6.65;3.17;;;21.10;32.80;;;;;;5012214;28;20105;-68
2022/05/01 18:58:20;;;;;;;7.05;3.63;;;21.10;33.20;;;;;;5008538;28;20053;-68
2022/05/01 19:00:51;;;;;;;7.28;2.95;;;21.00;33.60;;;;;;5025052;28;20033;-68
2022/05/01 19:03:18;;;;;;;5.28;3.08;;;21.00;33.90;;;;;;5022508;28;20033;-68
2022/05/01 19:05:50;;;;;;;5.13;3.20;;;20.90;34.20;;;;;;5018723;28;20029;-68
2022/05/01 19:08:55;;;;;;;10.20;6.18;;;20.90;34.60;;;;;;5018370;28;20141;-68
2022/05/01 19:11:56;;;;;;;12.73;8.50;;;20.90;34.70;;;;;;5027999;28;20025;-67
2022/05/01 19:14:47;;;;;;;6.65;3.80;;;20.90;34.80;;;;;;5025890;28;20026;-67
2022/05/01 19:17:37;;;;;;;7.25;3.28;;;20.80;35.00;;;;;;5011464;28;20030;-68
2022/05/01 19:20:18;;;;;;;7.32;3.22;;;20.80;35.20;;;;;;5011944;28;20159;-68
2022/05/01 19:23:02;;;;;;;;;;;20.70;35.20;;;;;;5011804;28;20121;-67
2022/05/01 19:28:34;;;;;;;5.50;3.38;;;20.60;34.70;;;;;;5008148;28;20092;-68
2022/05/01 19:31:25;;;;;;;6.68;3.20;;;20.50;34.70;;;;;;5027918;28;20025;-68
2022/05/01 19:34:23;;;;;;;8.90;3.50;;;20.50;35.20;;;;;;5025934;28;20029;-68
2022/05/01 19:37:03;;;;;;;8.18;3.60;;;20.50;35.50;;;;;;5028328;28;20068;-68
2022/05/01 19:40:03;;;;;;;9.25;3.50;;;20.40;35.60;;;;;;5015015;28;20073;-66
2022/05/01 19:42:47;;;;;;;7.23;3.40;;;20.40;35.80;;;;;;5046618;28;20444;-66
2022/05/01 19:45:41;;;;;;;7.68;3.30;;;20.30;35.80;;;;;;5025309;28;20041;-67
2022/05/01 19:54:13;;;;;;;6.55;3.33;;;20.20;36.10;;;;;;5020180;28;20551;-67
2022/05/01 19:56:39;;;;;;;6.50;3.40;;;20.20;36.20;;;;;;5027638;28;20084;-66
2022/05/01 19:59:05;;;;;;;6.32;3.60;;;20.10;36.70;;;;;;5031007;28;20042;-67
2022/05/01 20:01:31;;;;;;;7.13;3.70;;;20.10;37.20;;;;;;5032170;28;20045;-66
2022/05/01 20:03:57;;;;;;;8.30;3.58;;;20.10;37.60;;;;;;5028682;28;20025;-67
2022/05/01 20:06:24;;;;;;;6.28;3.30;;;20.00;37.90;;;;;;5030251;28;20064;-67
2022/05/01 20:08:50;;;;;;;5.50;3.17;;;20.00;38.50;;;;;;5026215;28;20060;-67
2022/05/01 20:11:19;;;;;;;7.72;3.67;;;20.00;38.90;;;;;;5031312;28;20076;-67
2022/05/01 20:13:47;;;;;;;8.38;3.45;;;19.90;39.40;;;;;;5028683;28;20108;-66
2022/05/01 20:16:33;;;;;;;8.00;4.03;;;19.90;39.80;;;;;;5028521;28;20551;-67
2022/05/01 20:19:23;;;;;;;6.38;3.70;;;19.80;40.70;;;;;;5021581;28;20070;-67
2022/05/01 20:22:09;;;;;;;5.57;3.38;;;19.80;41.30;;;;;;5025692;28;20531;-67
2022/05/01 20:25:12;;;;;;;6.07;3.47;;;19.70;41.70;;;;;;5029088;28;20049;-67
2022/05/01 20:28:03;;;;;;;6.25;3.20;;;19.60;42.50;;;;;;5023576;28;20045;-67
2022/05/01 20:30:51;;;;;;;7.60;4.07;;;19.60;43.20;;;;;;5030417;28;20068;-67
2022/05/01 20:33:27;;;;;;;10.35;5.63;;;19.50;43.50;;;;;;5023092;28;20523;-67
2022/05/01 20:36:08;;;;;;;6.95;3.72;;;19.50;43.80;;;;;;5024106;28;20030;-67
2022/05/01 20:38:54;;;;;;;7.95;3.92;;;19.40;44.10;;;;;;5035402;28;20025;-67
2022/05/01 20:41:29;;;;;;;7.68;3.90;;;19.30;44.40;;;;;;5032690;28;20552;-67
2022/05/01 20:44:09;;;;;;;5.88;3.55;;;19.30;45.70;;;;;;5025800;28;20026;-67
2022/05/01 20:46:39;;;;;;;5.63;3.53;;;19.20;46.90;;;;;;5024518;28;20028;-67
2022/05/01 20:49:35;;;;;;;8.05;4.20;;;19.10;47.60;;;;;;5037033;28;20053;-67
2022/05/01 20:52:10;;;;;;;5.85;3.90;;;19.00;47.80;;;;;;5038712;28;20107;-67
2022/05/01 20:54:39;;;;;;;7.28;3.60;;;19.00;47.70;;;;;;5036473;28;20036;-67
2022/05/01 20:57:07;;;;;;;7.28;4.20;;;19.00;47.60;;;;;;5027243;28;20025;-67
2022/05/01 20:59:33;;;;;;;6.35;3.97;;;19.00;47.50;;;;;;5023789;28;20389;-67
2022/05/01 21:02:01;;;;;;;7.05;4.20;;;18.90;47.20;;;;;;5014705;28;20072;-66
2022/05/01 21:04:28;;;;;;;10.55;4.30;;;18.90;46.70;;;;;;5026793;28;20033;-67
2022/05/01 21:06:56;;;;;;;7.78;4.53;;;18.80;46.40;;;;;;5026585;28;20370;-66
2022/05/01 21:09:23;;;;;;;7.47;4.18;;;18.80;46.10;;;;;;5041508;28;20044;-67
2022/05/01 21:11:49;;;;;;;7.18;4.40;;;18.80;45.90;;;;;;5030981;28;20024;-66
2022/05/01 21:14:16;;;;;;;8.90;4.07;;;18.80;45.70;;;;;;5031818;28;20026;-66
2022/05/01 21:16:43;;;;;;;8.23;4.25;;;18.70;45.60;;;;;;5025601;28;20069;-67
2022/05/01 21:19:09;;;;;;;6.75;4.30;;;18.70;46.70;;;;;;5037758;28;21104;-67
2022/05/01 21:21:36;;;;;;;8.18;4.00;;;18.70;45.60;;;;;;5037203;28;20032;-67
2022/05/01 21:24:02;;;;;;;7.60;4.30;;;18.70;45.50;;;;;;5017123;28;20102;-67
2022/05/01 21:26:28;;;;;;;6.53;4.20;;;18.70;45.50;;;;;;5021093;28;20397;-66
2022/05/01 21:34:22;;;;;;;6.90;4.18;;;18.70;45.60;;;;;;5033760;28;20035;-66
2022/05/01 21:36:48;;;;;;;6.97;4.22;;;18.70;46.60;;;;;;5018212;28;20025;-66
2022/05/01 21:39:14;;;;;;;6.90;4.00;;;18.60;47.20;;;;;;5023182;28;20079;-66